Time,TemperatureF,DewpointF,PressureIn,WindDirection,WindDirectionDegrees,WindSpeedMPH,WindSpeedGustMPH,Humidity,HourlyPrecipIn,Conditions,Clouds,dailyrainin,SoftwareType,DateUTC
2013-01-21 00:03:00,15.4,-8.0,29.44,NW,306,3.6,5.3,34,0.00,CLR,,0.00,WeatherDisplay:10.37,2013-01-21 06:03:00,
2013-01-21 00:08:00,15.3,-8.1,29.44,North,1,4.8,8.3,34,0.00,CLR,,0.00,WeatherDisplay:10.37,2013-01-21 06:08:00,
2013-01-21 00:13:00,15.3,-8.1,29.44,WNW,286,4.8,7.1,34,0.00,CLR,,0.00,WeatherDisplay:10.37,2013-01-21 06:13:00,
2013-01-21 00:19:00,15.3,-8.1,29.44,WNW,288,3.0,6.5,34,0.00,CLR,,0.00,WeatherDisplay:10.37,2013-01-21 06:19:00,
2013-01-21 00:24:00,15.3,-8.1,29.44,NW,315,4.2,6.5,34,0.00,CLR,,0.00,WeatherDisplay:10.37,2013-01-21 06:24:00,
2013-01-21 00:30:00,15.4,-8.0,29.44,WNW,298,4.2,4.8,34,0.00,CLR,,0.00,WeatherDisplay:10.37,2013-01-21 06:30:00,
2013-01-21 00:35:00,15.4,-8.0,29.44,WNW,291,0.0,5.3,34,0.00,CLR,,0.00,WeatherDisplay:10.37,2013-01-21 06:35:00,
2013-01-21 00:40:00,15.4,-8.0,29.41,NW,321,0.0,4.6,34,0.00,CLR,,0.00,WeatherDisplay:10.37,2013-01-21 06:40:00,
2013-01-21 00:45:00,15.4,-8.0,29.41,WNW,303,5.3,5.8,34,0.00,CLR,,0.00,WeatherDisplay:10.37,2013-01-21 06:45:00,
2013-01-21 00:50:00,15.4,-7.4,29.41,West,272,3.0,3.6,35,0.00,CLR,,0.00,WeatherDisplay:10.37,2013-01-21 06:50:00,
2013-01-21 00:55:00,15.4,-7.4,29.41,NW,315,4.2,7.1,35,0.00,CLR,,0.00,WeatherDisplay:10.37,2013-01-21 06:55:00,
2013-01-21 01:00:00,15.4,-7.4,29.41,WNW,291,4.8,6.9,35,0.00,CLR,,0.00,WeatherDisplay:10.37,2013-01-21 07:00:00,
2013-01-21 01:06:00,15.4,-7.4,29.41,NW,311,4.8,8.1,35,0.00,CLR,,0.00,WeatherDisplay:10.37,2013-01-21 07:06:00,
2013-01-21 01:11:00,15.4,-7.4,29.41,WNW,291,3.6,4.6,35,0.00,CLR,,0.00,WeatherDisplay:10.37,2013-01-21 07:11:00,
2013-01-21 01:16:00,15.3,-7.5,29.41,WNW,292,0.0,6.9,35,0.00,CLR,,0.00,WeatherDisplay:10.37,2013-01-21 07:16:00,
2013-01-21 01:21:00,15.1,-7.7,29.41,WNW,295,7.7,11.0,35,0.00,CLR,,0.00,WeatherDisplay:10.37,2013-01-21 07:21:00,
2013-01-21 01:26:00,14.9,-7.9,29.41,WNW,289,5.3,7.7,35,0.00,CLR,,0.00,WeatherDisplay:10.37,2013-01-21 07:26:00,
2013-01-21 01:32:00,14.4,-8.4,29.41,WNW,291,7.1,8.1,35,0.00,CLR,,0.00,WeatherDisplay:10.37,2013-01-21 07:32:00,
2013-01-21 01:38:00,14.2,-8.5,29.41,WSW,249,4.8,8.3,35,0.00,CLR,,0.00,WeatherDisplay:10.37,2013-01-21 07:38:00,
2013-01-21 01:44:00,13.8,-8.8,29.41,NW,318,0.0,4.6,35,0.00,CLR,,0.00,WeatherDisplay:10.37,2013-01-21 07:44:00,
2013-01-21 01:49:00,13.6,-9.0,29.41,WNW,295,4.2,6.5,35,0.00,CLR,,0.00,WeatherDisplay:10.37,2013-01-21 07:49:00,
2013-01-21 01:55:00,13.3,-9.3,29.41,NW,317,5.9,8.3,35,0.00,CLR,,0.00,WeatherDisplay:10.37,2013-01-21 07:55:00,
2013-01-21 02:00:00,13.3,-9.3,29.41,WNW,292,8.3,10.4,35,0.00,CLR,,0.00,WeatherDisplay:10.37,2013-01-21 08:00:00,
2013-01-21 02:05:00,13.3,-9.3,29.41,NNW,329,6.5,10.4,35,0.00,CLR,,0.00,WeatherDisplay:10.37,2013-01-21 08:05:00,
2013-01-21 02:10:00,13.3,-9.3,29.41,WNW,291,7.1,10.7,35,0.00,CLR,,0.00,WeatherDisplay:10.37,2013-01-21 08:10:00,
2013-01-21 02:15:00,13.5,-9.2,29.41,NW,307,4.8,8.1,35,0.00,CLR,,0.00,WeatherDisplay:10.37,2013-01-21 08:15:00,
2013-01-21 02:20:00,13.5,-9.2,29.41,NW,308,3.0,5.8,35,0.00,CLR,,0.00,WeatherDisplay:10.37,2013-01-21 08:20:00,
2013-01-21 02:25:00,13.5,-9.2,29.41,West,263,4.2,7.1,35,0.00,CLR,,0.00,WeatherDisplay:10.37,2013-01-21 08:25:00,
2013-01-21 02:30:00,13.5,-9.2,29.41,WSW,249,4.2,5.8,35,0.00,CLR,,0.00,WeatherDisplay:10.37,2013-01-21 08:30:00,
2013-01-21 02:35:00,13.5,-9.2,29.41,West,276,3.6,5.8,35,0.00,CLR,,0.00,WeatherDisplay:10.37,2013-01-21 08:35:00,
2013-01-21 02:40:00,13.5,-9.2,29.41,West,275,5.9,8.1,35,0.00,CLR,,0.00,WeatherDisplay:10.37,2013-01-21 08:40:00,
2013-01-21 02:46:00,13.5,-9.2,29.41,West,261,4.2,6.5,35,0.00,CLR,,0.00,WeatherDisplay:10.37,2013-01-21 08:46:00,
2013-01-21 02:52:00,13.5,-9.2,29.41,West,273,3.6,5.3,35,0.00,CLR,,0.00,WeatherDisplay:10.37,2013-01-21 08:52:00,
2013-01-21 02:57:00,13.5,-9.2,29.41,West,280,3.0,6.9,35,0.00,CLR,,0.00,WeatherDisplay:10.37,2013-01-21 08:57:00,
2013-01-21 03:03:00,13.3,-9.3,29.41,West,277,4.8,6.5,35,0.00,CLR,,0.00,WeatherDisplay:10.37,2013-01-21 09:03:00,
2013-01-21 03:08:00,13.3,-9.3,29.41,WNW,300,4.8,7.1,35,0.00,CLR,,0.00,WeatherDisplay:10.37,2013-01-21 09:08:00,
2013-01-21 03:13:00,13.5,-9.2,29.41,WSW,244,5.3,8.3,35,0.00,CLR,,0.00,WeatherDisplay:10.37,2013-01-21 09:13:00,
2013-01-21 03:18:00,13.5,-9.2,29.41,WNW,297,5.3,8.1,35,0.00,CLR,,0.00,WeatherDisplay:10.37,2013-01-21 09:18:00,
2013-01-21 03:23:00,13.5,-9.2,29.38,NW,304,6.5,10.4,35,0.00,CLR,,0.00,WeatherDisplay:10.37,2013-01-21 09:23:00,
2013-01-21 03:28:00,13.5,-9.2,29.38,West,271,4.2,11.5,35,0.00,CLR,,0.00,WeatherDisplay:10.37,2013-01-21 09:28:00,
2013-01-21 03:33:00,13.5,-9.2,29.38,West,272,4.8,8.1,35,0.00,CLR,,0.00,WeatherDisplay:10.37,2013-01-21 09:33:00,
2013-01-21 03:38:00,13.3,-9.3,29.38,WNW,293,6.5,10.7,35,0.00,CLR,,0.00,WeatherDisplay:10.37,2013-01-21 09:38:00,
2013-01-21 03:43:00,13.3,-9.3,29.38,WNW,288,5.9,8.1,35,0.00,CLR,,0.00,WeatherDisplay:10.37,2013-01-21 09:43:00,
2013-01-21 03:48:00,13.1,-9.5,29.38,North,353,4.2,5.8,35,0.00,CLR,,0.00,WeatherDisplay:10.37,2013-01-21 09:48:00,
2013-01-21 03:53:00,12.9,-9.6,29.38,WNW,284,7.7,8.3,35,0.00,CLR,,0.00,WeatherDisplay:10.37,2013-01-21 09:53:00,
2013-01-21 03:58:00,12.7,-9.8,29.38,WNW,303,7.7,10.1,35,0.00,CLR,,0.00,WeatherDisplay:10.37,2013-01-21 09:58:00,
2013-01-21 04:03:00,12.4,-10.1,29.38,West,281,4.8,8.9,35,0.00,CLR,,0.00,WeatherDisplay:10.37,2013-01-21 10:03:00,
2013-01-21 04:08:00,12.2,-10.3,29.38,West,280,5.3,8.1,35,0.00,CLR,,0.00,WeatherDisplay:10.37,2013-01-21 10:08:00,
2013-01-21 04:13:00,12.2,-10.3,29.38,WNW,303,7.1,8.3,35,0.00,CLR,,0.00,WeatherDisplay:10.37,2013-01-21 10:13:00,
2013-01-21 04:18:00,12.0,-10.4,29.38,WNW,295,3.6,5.3,35,0.00,CLR,,0.00,WeatherDisplay:10.37,2013-01-21 10:18:00,
2013-01-21 04:23:00,11.8,-10.6,29.38,WNW,284,4.8,8.1,35,0.00,CLR,,0.00,WeatherDisplay:10.37,2013-01-21 10:23:00,
2013-01-21 04:28:00,11.8,-10.6,29.38,WNW,299,3.6,4.8,35,0.00,CLR,,0.00,WeatherDisplay:10.37,2013-01-21 10:28:00,
2013-01-21 04:33:00,11.7,-10.8,29.38,WNW,289,3.6,4.8,35,0.00,CLR,,0.00,WeatherDisplay:10.37,2013-01-21 10:33:00,
2013-01-21 04:38:00,11.7,-10.8,29.38,WNW,289,0.0,0.0,35,0.00,CLR,,0.00,WeatherDisplay:10.37,2013-01-21 10:38:00,
2013-01-21 04:43:00,11.7,-10.8,29.38,West,277,4.8,5.8,35,0.00,CLR,,0.00,WeatherDisplay:10.37,2013-01-21 10:43:00,
2013-01-21 04:48:00,11.5,-10.9,29.38,WNW,303,4.8,8.1,35,0.00,CLR,,0.00,WeatherDisplay:10.37,2013-01-21 10:48:00,
2013-01-21 04:53:00,11.3,-11.1,29.38,NW,316,4.8,5.3,35,0.00,CLR,,0.00,WeatherDisplay:10.37,2013-01-21 10:53:00,
2013-01-21 04:58:00,11.3,-11.1,29.38,NW,305,4.2,5.8,35,0.00,CLR,,0.00,WeatherDisplay:10.37,2013-01-21 10:58:00,
2013-01-21 05:03:00,11.3,-11.1,29.38,WNW,286,3.0,7.7,35,0.00,CLR,,0.00,WeatherDisplay:10.37,2013-01-21 11:03:00,
2013-01-21 05:08:00,11.1,-11.3,29.38,NW,323,4.2,4.6,35,0.00,CLR,,0.00,WeatherDisplay:10.37,2013-01-21 11:08:00,
2013-01-21 05:13:00,11.1,-11.3,29.38,WNW,288,5.3,6.9,35,0.00,CLR,,0.00,WeatherDisplay:10.37,2013-01-21 11:13:00,
2013-01-21 05:18:00,11.1,-11.3,29.38,WNW,287,0.0,4.8,35,0.00,CLR,,0.00,WeatherDisplay:10.37,2013-01-21 11:18:00,
2013-01-21 05:23:00,11.3,-11.1,29.38,NNW,341,0.0,4.6,35,0.00,CLR,,0.00,WeatherDisplay:10.37,2013-01-21 11:23:00,
2013-01-21 05:28:00,11.3,-11.1,29.38,NNW,333,4.2,4.8,35,0.00,CLR,,0.00,WeatherDisplay:10.37,2013-01-21 11:28:00,
2013-01-21 05:33:00,11.3,-11.1,29.38,NW,323,5.3,8.3,35,0.00,CLR,,0.00,WeatherDisplay:10.37,2013-01-21 11:33:00,
2013-01-21 05:38:00,11.1,-11.3,29.38,WNW,297,4.8,8.3,35,0.00,CLR,,0.00,WeatherDisplay:10.37,2013-01-21 11:38:00,
2013-01-21 05:43:00,10.9,-11.4,29.38,West,278,0.0,4.6,35,0.00,CLR,,0.00,WeatherDisplay:10.37,2013-01-21 11:43:00,
2013-01-21 05:48:00,10.8,-11.6,29.38,NNW,336,7.7,11.5,35,0.00,CLR,,0.00,WeatherDisplay:10.37,2013-01-21 11:48:00,
2013-01-21 05:53:00,10.6,-11.7,29.38,WNW,302,4.2,8.3,35,0.00,CLR,,0.00,WeatherDisplay:10.37,2013-01-21 11:53:00,
2013-01-21 05:58:00,10.4,-11.9,29.38,WNW,288,0.0,4.6,35,0.00,CLR,,0.00,WeatherDisplay:10.37,2013-01-21 11:58:00,
2013-01-21 06:03:00,10.4,-11.9,29.38,North,0,5.9,8.3,35,0.00,CLR,,0.00,WeatherDisplay:10.37,2013-01-21 12:03:00,
2013-01-21 06:08:00,10.2,-12.1,29.38,NNW,342,3.6,5.8,35,0.00,CLR,,0.00,WeatherDisplay:10.37,2013-01-21 12:08:00,
2013-01-21 06:13:00,10.0,-12.2,29.38,WNW,289,3.6,5.8,35,0.00,CLR,,0.00,WeatherDisplay:10.37,2013-01-21 12:13:00,
2013-01-21 06:18:00,10.0,-12.2,29.38,NNW,330,5.3,7.1,35,0.00,CLR,,0.00,WeatherDisplay:10.37,2013-01-21 12:18:00,
2013-01-21 06:23:00,10.0,-12.2,29.38,NW,326,3.6,4.6,35,0.00,CLR,,0.00,WeatherDisplay:10.37,2013-01-21 12:23:00,
2013-01-21 06:28:00,9.9,-12.4,29.38,NNE,12,3.6,5.8,35,0.00,CLR,,0.00,WeatherDisplay:10.37,2013-01-21 12:28:00,
2013-01-21 06:33:00,9.9,-12.4,29.38,WNW,285,3.0,4.8,35,0.00,CLR,,0.00,WeatherDisplay:10.37,2013-01-21 12:33:00,
2013-01-21 06:38:00,10.0,-12.2,29.38,NW,318,3.6,4.8,35,0.00,CLR,,0.00,WeatherDisplay:10.37,2013-01-21 12:38:00,
2013-01-21 06:43:00,10.0,-12.2,29.38,NW,324,3.0,4.6,35,0.00,CLR,,0.00,WeatherDisplay:10.37,2013-01-21 12:43:00,
2013-01-21 06:48:00,10.0,-12.2,29.38,WNW,299,0.0,5.8,35,0.00,CLR,,0.00,WeatherDisplay:10.37,2013-01-21 12:48:00,
2013-01-21 06:53:00,10.0,-12.2,29.38,NW,315,5.9,8.1,35,0.00,CLR,,0.00,WeatherDisplay:10.37,2013-01-21 12:53:00,
2013-01-21 06:58:00,10.0,-12.2,29.38,WNW,287,0.0,0.0,35,0.00,CLR,,0.00,WeatherDisplay:10.37,2013-01-21 12:58:00,
2013-01-21 07:03:00,10.0,-12.2,29.38,NW,325,3.0,7.7,35,0.00,CLR,,0.00,WeatherDisplay:10.37,2013-01-21 13:03:00,
2013-01-21 07:08:00,10.0,-12.2,29.38,WNW,301,4.2,5.8,35,0.00,CLR,,0.00,WeatherDisplay:10.37,2013-01-21 13:08:00,
2013-01-21 07:13:00,10.0,-12.2,29.38,WNW,303,7.1,11.5,35,0.00,CLR,,0.00,WeatherDisplay:10.37,2013-01-21 13:13:00,
2013-01-21 07:18:00,10.0,-12.2,29.38,NW,313,6.5,8.3,35,0.00,CLR,,0.00,WeatherDisplay:10.37,2013-01-21 13:18:00,
2013-01-21 07:23:00,10.0,-12.2,29.38,West,271,4.2,5.8,35,0.00,CLR,,0.00,WeatherDisplay:10.37,2013-01-21 13:23:00,
2013-01-21 07:28:00,10.2,-12.1,29.38,WNW,286,4.8,8.1,35,0.00,CLR,,0.00,WeatherDisplay:10.37,2013-01-21 13:28:00,
2013-01-21 07:33:00,10.2,-12.1,29.38,NW,307,4.2,7.1,35,0.00,CLR,,0.00,WeatherDisplay:10.37,2013-01-21 13:33:00,
2013-01-21 07:38:00,10.2,-12.1,29.38,WNW,302,7.7,11.5,35,0.00,CLR,,0.00,WeatherDisplay:10.37,2013-01-21 13:38:00,
2013-01-21 07:43:00,10.2,-12.1,29.38,WNW,293,7.1,10.4,35,0.00,CLR,,0.00,WeatherDisplay:10.37,2013-01-21 13:43:00,
2013-01-21 07:48:00,10.2,-12.1,29.38,WNW,288,3.6,5.9,35,0.00,CLR,,0.00,WeatherDisplay:10.37,2013-01-21 13:48:00,
2013-01-21 07:53:00,10.4,-11.9,29.38,West,280,7.7,15.0,35,0.00,CLR,,0.00,WeatherDisplay:10.37,2013-01-21 13:53:00,
2013-01-21 07:58:00,10.2,-12.1,29.38,West,266,5.3,8.1,35,0.00,CLR,,0.00,WeatherDisplay:10.37,2013-01-21 13:58:00,
2013-01-21 08:03:00,10.2,-12.1,29.38,WNW,286,3.6,4.8,35,0.00,CLR,,0.00,WeatherDisplay:10.37,2013-01-21 14:03:00,
2013-01-21 08:08:00,10.2,-12.1,29.38,WNW,296,7.7,8.3,35,0.00,CLR,,0.00,WeatherDisplay:10.37,2013-01-21 14:08:00,
2013-01-21 08:13:00,10.2,-12.1,29.38,WNW,297,7.7,10.7,35,0.00,CLR,,0.00,WeatherDisplay:10.37,2013-01-21 14:13:00,
2013-01-21 08:18:00,10.2,-12.1,29.38,WNW,283,7.7,11.0,35,0.00,CLR,,0.00,WeatherDisplay:10.37,2013-01-21 14:18:00,
2013-01-21 08:23:00,10.4,-11.9,29.38,WNW,294,8.3,13.4,35,0.00,CLR,,0.00,WeatherDisplay:10.37,2013-01-21 14:23:00,
2013-01-21 08:28:00,10.4,-11.9,29.38,WNW,294,7.7,10.7,35,0.00,CLR,,0.00,WeatherDisplay:10.37,2013-01-21 14:28:00,
2013-01-21 08:33:00,10.2,-12.1,29.38,NW,320,7.1,12.8,35,0.00,CLR,,0.00,WeatherDisplay:10.37,2013-01-21 14:33:00,
2013-01-21 08:38:00,10.0,-12.2,29.41,West,269,8.3,10.7,35,0.00,CLR,,0.00,WeatherDisplay:10.37,2013-01-21 14:38:00,
2013-01-21 08:43:00,10.0,-12.2,29.41,West,281,6.5,10.4,35,0.00,CLR,,0.00,WeatherDisplay:10.37,2013-01-21 14:43:00,
2013-01-21 08:48:00,10.0,-12.2,29.41,West,281,8.3,11.5,35,0.00,CLR,,0.00,WeatherDisplay:10.37,2013-01-21 14:48:00,
2013-01-21 08:53:00,10.2,-12.1,29.41,WNW,293,7.7,10.4,35,0.00,CLR,,0.00,WeatherDisplay:10.37,2013-01-21 14:53:00,
2013-01-21 08:58:00,10.2,-12.1,29.41,West,265,5.3,10.4,35,0.00,CLR,,0.00,WeatherDisplay:10.37,2013-01-21 14:58:00,
2013-01-21 09:03:00,10.4,-11.9,29.41,NNW,336,5.3,8.1,35,0.00,CLR,,0.00,WeatherDisplay:10.37,2013-01-21 15:03:00,
2013-01-21 09:08:00,10.4,-11.9,29.41,NW,305,4.8,8.3,35,0.00,CLR,,0.00,WeatherDisplay:10.37,2013-01-21 15:08:00,
2013-01-21 09:13:00,10.2,-12.1,29.41,WNW,297,5.9,10.4,35,0.00,CLR,,0.00,WeatherDisplay:10.37,2013-01-21 15:13:00,
2013-01-21 09:18:00,9.9,-12.4,29.41,NW,325,8.9,12.8,35,0.00,CLR,,0.00,WeatherDisplay:10.37,2013-01-21 15:18:00,
2013-01-21 09:23:00,9.7,-12.5,29.41,NW,308,8.9,11.6,35,0.00,CLR,,0.00,WeatherDisplay:10.37,2013-01-21 15:23:00,
2013-01-21 09:28:00,9.3,-12.9,29.41,WNW,303,5.9,9.2,35,0.00,CLR,,0.00,WeatherDisplay:10.37,2013-01-21 15:28:00,
2013-01-21 09:33:00,9.1,-13.0,29.41,NW,304,8.3,11.6,35,0.00,CLR,,0.00,WeatherDisplay:10.37,2013-01-21 15:33:00,
2013-01-21 09:38:00,9.3,-12.9,29.41,WNW,292,7.7,10.7,35,0.00,CLR,,0.00,WeatherDisplay:10.37,2013-01-21 15:38:00,
2013-01-21 09:43:00,10.4,-11.9,29.41,North,5,3.0,7.7,35,0.00,CLR,,0.00,WeatherDisplay:10.37,2013-01-21 15:43:00,
2013-01-21 09:48:00,10.6,-11.7,29.41,NNW,328,7.1,10.4,35,0.00,CLR,,0.00,WeatherDisplay:10.37,2013-01-21 15:48:00,
2013-01-21 09:53:00,10.2,-12.1,29.44,SW,233,7.1,11.5,35,0.00,CLR,,0.00,WeatherDisplay:10.37,2013-01-21 15:53:00,
2013-01-21 09:58:00,9.9,-12.4,29.44,North,0,7.7,10.4,35,0.00,CLR,,0.00,WeatherDisplay:10.37,2013-01-21 15:58:00,
2013-01-21 10:03:00,9.5,-12.7,29.44,NW,321,6.5,7.1,35,0.00,CLR,,0.00,WeatherDisplay:10.37,2013-01-21 16:03:00,
2013-01-21 10:08:00,9.5,-12.7,29.44,NNW,334,6.5,8.3,35,0.00,CLR,,0.00,WeatherDisplay:10.37,2013-01-21 16:08:00,
2013-01-21 10:13:00,9.9,-12.4,29.44,NW,320,8.3,8.3,35,0.00,CLR,,0.00,WeatherDisplay:10.37,2013-01-21 16:13:00,
2013-01-21 10:18:00,9.7,-12.5,29.44,SW,233,7.1,10.4,35,0.00,CLR,,0.00,WeatherDisplay:10.37,2013-01-21 16:18:00,
2013-01-21 10:23:00,9.7,-12.5,29.44,NNW,334,10.1,13.8,35,0.00,CLR,,0.00,WeatherDisplay:10.37,2013-01-21 16:23:00,
2013-01-21 10:28:00,10.0,-12.2,29.44,NW,308,9.5,13.8,35,0.00,CLR,,0.00,WeatherDisplay:10.37,2013-01-21 16:28:00,
2013-01-21 10:33:00,10.8,-11.6,29.44,NW,315,5.3,7.1,35,0.00,CLR,,0.00,WeatherDisplay:10.37,2013-01-21 16:33:00,
2013-01-21 10:38:00,12.2,-10.3,29.44,WNW,283,8.9,10.4,35,0.00,CLR,,0.00,WeatherDisplay:10.37,2013-01-21 16:38:00,
2013-01-21 10:43:00,12.0,-10.4,29.44,WNW,285,6.5,8.3,35,0.00,CLR,,0.00,WeatherDisplay:10.37,2013-01-21 16:43:00,
2013-01-21 10:48:00,11.7,-10.8,29.44,WNW,286,5.3,11.6,35,0.00,CLR,,0.00,WeatherDisplay:10.37,2013-01-21 16:48:00,
2013-01-21 10:53:00,11.5,-10.9,29.44,NNW,336,6.5,8.3,35,0.00,CLR,,0.00,WeatherDisplay:10.37,2013-01-21 16:53:00,
2013-01-21 10:58:00,12.6,-10.0,29.44,NNW,340,8.3,11.6,35,0.00,CLR,,0.00,WeatherDisplay:10.37,2013-01-21 16:58:00,
2013-01-21 11:03:00,12.4,-10.1,29.44,North,0,5.3,11.5,35,0.00,CLR,,0.00,WeatherDisplay:10.37,2013-01-21 17:03:00,
2013-01-21 11:08:00,11.8,-10.6,29.44,West,273,7.1,10.7,35,0.00,CLR,,0.00,WeatherDisplay:10.37,2013-01-21 17:08:00,
2013-01-21 11:13:00,11.7,-10.8,29.44,WNW,293,5.9,10.1,35,0.00,CLR,,0.00,WeatherDisplay:10.37,2013-01-21 17:13:00,
2013-01-21 11:18:00,12.6,-10.0,29.44,NW,304,5.3,8.1,35,0.00,CLR,,0.00,WeatherDisplay:10.37,2013-01-21 17:18:00,
2013-01-21 11:23:00,13.6,-9.0,29.44,WNW,293,8.9,10.7,35,0.00,CLR,,0.00,WeatherDisplay:10.37,2013-01-21 17:23:00,
2013-01-21 11:28:00,13.6,-9.0,29.44,WNW,303,10.7,15.0,35,0.00,CLR,,0.00,WeatherDisplay:10.37,2013-01-21 17:28:00,
2013-01-21 11:33:00,13.8,-8.8,29.44,NNW,338,9.5,11.6,35,0.00,CLR,,0.00,WeatherDisplay:10.37,2013-01-21 17:33:00,
2013-01-21 11:38:00,13.6,-9.0,29.41,West,275,11.6,13.8,35,0.00,CLR,,0.00,WeatherDisplay:10.37,2013-01-21 17:38:00,
2013-01-21 11:43:00,14.2,-9.1,29.41,NW,313,9.5,11.5,34,0.00,CLR,,0.00,WeatherDisplay:10.37,2013-01-21 17:43:00,
2013-01-21 11:48:00,14.2,-9.1,29.41,NW,311,9.5,11.5,34,0.00,CLR,,0.00,WeatherDisplay:10.37,2013-01-21 17:48:00,
2013-01-21 11:53:00,13.8,-9.4,29.41,NNW,338,7.7,10.7,34,0.00,CLR,,0.00,WeatherDisplay:10.37,2013-01-21 17:53:00,
2013-01-21 11:58:00,14.0,-9.3,29.41,WNW,301,10.7,14.6,34,0.00,CLR,,0.00,WeatherDisplay:10.37,2013-01-21 17:58:00,
2013-01-21 12:03:00,13.8,-9.4,29.41,WNW,294,7.7,11.6,34,0.00,CLR,,0.00,WeatherDisplay:10.37,2013-01-21 18:03:00,
2013-01-21 12:08:00,13.5,-9.8,29.41,North,353,7.1,10.4,34,0.00,CLR,,0.00,WeatherDisplay:10.37,2013-01-21 18:08:00,
2013-01-21 12:13:00,13.8,-9.4,29.41,West,276,7.7,13.4,34,0.00,CLR,,0.00,WeatherDisplay:10.37,2013-01-21 18:13:00,
2013-01-21 12:18:00,14.2,-9.1,29.41,NW,319,7.7,10.7,34,0.00,CLR,,0.00,WeatherDisplay:10.37,2013-01-21 18:18:00,
2013-01-21 12:23:00,14.2,-9.1,29.41,West,272,8.3,18.7,34,0.00,CLR,,0.00,WeatherDisplay:10.37,2013-01-21 18:23:00,
2013-01-21 12:28:00,14.4,-8.9,29.41,WNW,295,8.3,11.6,34,0.00,CLR,,0.00,WeatherDisplay:10.37,2013-01-21 18:28:00,
2013-01-21 12:33:00,14.5,-10.7,29.41,WNW,289,8.3,12.2,31,0.00,CLR,,0.00,WeatherDisplay:10.37,2013-01-21 18:33:00,
2013-01-21 12:38:00,14.5,-10.7,29.41,WNW,302,8.9,13.8,31,0.00,CLR,,0.00,WeatherDisplay:10.37,2013-01-21 18:38:00,
2013-01-21 12:43:00,14.5,-10.7,29.41,NW,307,9.5,10.4,31,0.00,CLR,,0.00,WeatherDisplay:10.37,2013-01-21 18:43:00,
2013-01-21 12:48:00,14.7,-10.5,29.41,West,280,8.3,8.3,31,0.00,CLR,,0.00,WeatherDisplay:10.37,2013-01-21 18:48:00,
2013-01-21 12:53:00,14.9,-10.3,29.41,NW,325,8.9,13.8,31,0.00,CLR,,0.00,WeatherDisplay:10.37,2013-01-21 18:53:00,
2013-01-21 12:58:00,14.7,-10.5,29.41,NW,307,8.9,10.4,31,0.00,CLR,,0.00,WeatherDisplay:10.37,2013-01-21 18:58:00,
2013-01-21 13:03:00,14.4,-10.8,29.41,WNW,290,10.1,13.8,31,0.00,CLR,,0.00,WeatherDisplay:10.37,2013-01-21 19:03:00,
2013-01-21 13:08:00,14.4,-10.8,29.41,WNW,299,11.6,16.1,31,0.00,CLR,,0.00,WeatherDisplay:10.37,2013-01-21 19:08:00,
2013-01-21 13:13:00,14.4,-10.8,29.41,West,263,7.1,10.1,31,0.00,CLR,,0.00,WeatherDisplay:10.37,2013-01-21 19:13:00,
2013-01-21 13:18:00,14.9,-10.3,29.41,WNW,291,7.7,8.9,31,0.00,CLR,,0.00,WeatherDisplay:10.37,2013-01-21 19:18:00,
2013-01-21 13:23:00,14.9,-10.3,29.41,WNW,290,8.9,10.7,31,0.00,CLR,,0.00,WeatherDisplay:10.37,2013-01-21 19:23:00,
2013-01-21 13:28:00,15.1,-10.2,29.41,NW,314,7.1,11.6,31,0.00,CLR,,0.00,WeatherDisplay:10.37,2013-01-21 19:28:00,
2013-01-21 13:33:00,14.7,-10.5,29.41,West,274,5.9,10.7,31,0.00,CLR,,0.00,WeatherDisplay:10.37,2013-01-21 19:33:00,
2013-01-21 13:38:00,14.5,-10.7,29.41,NW,320,10.1,11.6,31,0.00,CLR,,0.00,WeatherDisplay:10.37,2013-01-21 19:38:00,
2013-01-21 13:43:00,14.5,-10.7,29.41,WNW,285,8.3,12.8,31,0.00,CLR,,0.00,WeatherDisplay:10.37,2013-01-21 19:43:00,
2013-01-21 13:48:00,14.9,-10.3,29.41,WSW,238,5.9,6.9,31,0.00,CLR,,0.00,WeatherDisplay:10.37,2013-01-21 19:48:00,
2013-01-21 13:53:00,15.1,-10.2,29.41,West,265,10.1,16.1,31,0.00,CLR,,0.00,WeatherDisplay:10.37,2013-01-21 19:53:00,
2013-01-21 13:58:00,14.5,-10.7,29.41,WNW,290,5.9,10.7,31,0.00,CLR,,0.00,WeatherDisplay:10.37,2013-01-21 19:58:00,
2013-01-21 14:03:00,13.1,-11.3,29.41,WNW,300,8.3,19.3,32,0.00,CLR,,0.00,WeatherDisplay:10.37,2013-01-21 20:03:00,
2013-01-21 14:08:00,12.9,-11.5,29.41,NW,305,6.5,11.5,32,0.00,CLR,,0.00,WeatherDisplay:10.37,2013-01-21 20:08:00,
2013-01-21 14:13:00,13.3,-11.1,29.41,NW,305,10.7,17.3,32,0.00,CLR,,0.00,WeatherDisplay:10.37,2013-01-21 20:13:00,
2013-01-21 14:18:00,14.0,-10.5,29.41,WNW,291,9.5,11.5,32,0.00,CLR,,0.00,WeatherDisplay:10.37,2013-01-21 20:18:00,
2013-01-21 14:23:00,14.4,-10.8,29.41,West,276,7.1,11.5,31,0.00,CLR,,0.00,WeatherDisplay:10.37,2013-01-21 20:23:00,
2013-01-21 14:28:00,14.2,-11.0,29.41,NNW,333,8.3,14.6,31,0.00,CLR,,0.00,WeatherDisplay:10.37,2013-01-21 20:28:00,
2013-01-21 14:33:00,14.2,-11.0,29.41,West,268,10.1,11.5,31,0.00,CLR,,0.00,WeatherDisplay:10.37,2013-01-21 20:33:00,
2013-01-21 14:38:00,13.8,-10.7,29.41,WNW,294,4.8,10.7,32,0.00,CLR,,0.00,WeatherDisplay:10.37,2013-01-21 20:38:00,
2013-01-21 14:43:00,13.8,-10.7,29.41,WNW,301,7.7,13.4,32,0.00,CLR,,0.00,WeatherDisplay:10.37,2013-01-21 20:43:00,
2013-01-21 14:48:00,13.3,-11.1,29.41,WNW,284,10.1,10.7,32,0.00,CLR,,0.00,WeatherDisplay:10.37,2013-01-21 20:48:00,
2013-01-21 14:53:00,12.7,-11.6,29.41,WNW,290,7.1,8.1,32,0.00,CLR,,0.00,WeatherDisplay:10.37,2013-01-21 20:53:00,
2013-01-21 14:58:00,12.7,-11.6,29.41,WNW,284,8.3,14.0,32,0.00,CLR,,0.00,WeatherDisplay:10.37,2013-01-21 20:58:00,
2013-01-21 15:03:00,12.6,-11.8,29.41,WNW,290,6.5,8.1,32,0.00,CLR,,0.00,WeatherDisplay:10.37,2013-01-21 21:03:00,
2013-01-21 15:08:00,12.4,-11.9,29.41,NW,318,9.5,12.2,32,0.00,CLR,,0.00,WeatherDisplay:10.37,2013-01-21 21:08:00,
2013-01-21 15:13:00,12.0,-12.3,29.41,West,278,8.9,11.5,32,0.00,CLR,,0.00,WeatherDisplay:10.37,2013-01-21 21:13:00,
2013-01-21 15:18:00,12.2,-12.1,29.41,NNW,334,6.5,11.5,32,0.00,CLR,,0.00,WeatherDisplay:10.37,2013-01-21 21:18:00,
2013-01-21 15:23:00,12.0,-12.3,29.41,WNW,301,5.9,11.6,32,0.00,CLR,,0.00,WeatherDisplay:10.37,2013-01-21 21:23:00,
2013-01-21 15:28:00,11.8,-12.4,29.41,West,268,5.9,8.1,32,0.00,CLR,,0.00,WeatherDisplay:10.37,2013-01-21 21:28:00,
2013-01-21 15:33:00,11.8,-12.4,29.41,NW,309,5.9,8.1,32,0.00,CLR,,0.00,WeatherDisplay:10.37,2013-01-21 21:33:00,
2013-01-21 15:38:00,11.7,-12.6,29.44,NW,317,6.5,11.5,32,0.00,CLR,,0.00,WeatherDisplay:10.37,2013-01-21 21:38:00,
2013-01-21 15:43:00,11.3,-12.9,29.44,NW,314,8.9,17.5,32,0.00,CLR,,0.00,WeatherDisplay:10.37,2013-01-21 21:43:00,
2013-01-21 15:48:00,10.9,-13.2,29.44,NW,315,7.1,11.6,32,0.00,CLR,,0.00,WeatherDisplay:10.37,2013-01-21 21:48:00,
2013-01-21 15:53:00,10.8,-13.4,29.44,WNW,296,5.3,10.4,32,0.00,CLR,,0.00,WeatherDisplay:10.37,2013-01-21 21:53:00,
2013-01-21 15:58:00,10.6,-13.5,29.44,NW,312,8.3,11.6,32,0.00,CLR,,0.00,WeatherDisplay:10.37,2013-01-21 21:58:00,
2013-01-21 16:03:00,10.6,-13.5,29.44,WNW,301,8.3,13.8,32,0.00,CLR,,0.00,WeatherDisplay:10.37,2013-01-21 22:03:00,
2013-01-21 16:08:00,10.4,-13.7,29.44,West,277,9.5,10.4,32,0.00,CLR,,0.00,WeatherDisplay:10.37,2013-01-21 22:08:00,
2013-01-21 16:13:00,10.2,-13.9,29.44,NW,320,6.5,11.5,32,0.00,CLR,,0.00,WeatherDisplay:10.37,2013-01-21 22:13:00,
2013-01-21 16:18:00,10.0,-14.0,29.44,NW,307,7.1,8.3,32,0.00,CLR,,0.00,WeatherDisplay:10.37,2013-01-21 22:18:00,
2013-01-21 16:23:00,9.7,-14.3,29.44,WNW,283,5.3,7.1,32,0.00,CLR,,0.00,WeatherDisplay:10.37,2013-01-21 22:23:00,
2013-01-21 16:28:00,9.7,-14.3,29.44,West,273,7.1,11.5,32,0.00,CLR,,0.00,WeatherDisplay:10.37,2013-01-21 22:28:00,
2013-01-21 16:33:00,9.5,-14.5,29.44,NW,306,7.1,7.1,32,0.00,CLR,,0.00,WeatherDisplay:10.37,2013-01-21 22:33:00,
2013-01-21 16:38:00,9.5,-14.5,29.44,WNW,292,8.3,10.1,32,0.00,CLR,,0.00,WeatherDisplay:10.37,2013-01-21 22:38:00,
2013-01-21 16:43:00,9.5,-14.5,29.44,WNW,296,5.3,7.1,32,0.00,CLR,,0.00,WeatherDisplay:10.37,2013-01-21 22:43:00,
2013-01-21 16:48:00,9.3,-14.7,29.44,NW,324,5.3,8.1,32,0.00,CLR,,0.00,WeatherDisplay:10.37,2013-01-21 22:48:00,
2013-01-21 16:53:00,9.1,-14.8,29.44,West,265,7.7,9.5,32,0.00,CLR,,0.00,WeatherDisplay:10.37,2013-01-21 22:53:00,
2013-01-21 16:58:00,9.0,-15.0,29.44,WNW,286,7.1,8.3,32,0.00,CLR,,0.00,WeatherDisplay:10.37,2013-01-21 22:58:00,
2013-01-21 17:03:00,8.8,-15.1,29.44,WNW,297,5.3,7.1,32,0.00,CLR,,0.00,WeatherDisplay:10.37,2013-01-21 23:03:00,
2013-01-21 17:08:00,8.6,-15.3,29.44,NW,312,7.7,15.0,32,0.00,CLR,,0.00,WeatherDisplay:10.37,2013-01-21 23:08:00,
2013-01-21 17:13:00,8.4,-15.5,29.44,West,268,7.1,11.0,32,0.00,CLR,,0.00,WeatherDisplay:10.37,2013-01-21 23:13:00,
2013-01-21 17:18:00,8.2,-15.6,29.44,NW,304,7.7,10.7,32,0.00,CLR,,0.00,WeatherDisplay:10.37,2013-01-21 23:18:00,
2013-01-21 17:23:00,8.1,-15.8,29.44,WNW,282,7.1,15.0,32,0.00,CLR,,0.00,WeatherDisplay:10.37,2013-01-21 23:23:00,
2013-01-21 17:28:00,8.2,-15.6,29.44,WNW,298,7.1,8.1,32,0.00,CLR,,0.00,WeatherDisplay:10.37,2013-01-21 23:28:00,
2013-01-21 17:33:00,8.1,-15.8,29.44,West,259,3.0,11.0,32,0.00,CLR,,0.00,WeatherDisplay:10.37,2013-01-21 23:33:00,
2013-01-21 17:38:00,8.1,-15.8,29.44,West,281,7.7,11.6,32,0.00,CLR,,0.00,WeatherDisplay:10.37,2013-01-21 23:38:00,
2013-01-21 17:43:00,8.1,-15.8,29.44,NW,308,7.1,10.4,32,0.00,CLR,,0.00,WeatherDisplay:10.37,2013-01-21 23:43:00,
2013-01-21 17:48:00,7.9,-15.9,29.44,WNW,291,4.8,7.1,32,0.00,CLR,,0.00,WeatherDisplay:10.37,2013-01-21 23:48:00,
2013-01-21 17:53:00,8.1,-15.8,29.44,WNW,300,4.2,4.8,32,0.00,CLR,,0.00,WeatherDisplay:10.37,2013-01-21 23:53:00,
2013-01-21 17:58:00,8.1,-15.8,29.44,NW,312,3.6,5.3,32,0.00,CLR,,0.00,WeatherDisplay:10.37,2013-01-21 23:58:00,
2013-01-21 18:03:00,8.1,-15.8,29.44,NW,309,6.5,10.4,32,0.00,CLR,,0.00,WeatherDisplay:10.37,2013-01-22 00:03:00,
2013-01-21 18:08:00,8.1,-15.8,29.47,WNW,288,7.7,11.6,32,0.00,CLR,,0.00,WeatherDisplay:10.37,2013-01-22 00:08:00,
2013-01-21 18:13:00,8.1,-15.8,29.47,West,280,7.1,11.0,32,0.00,CLR,,0.00,WeatherDisplay:10.37,2013-01-22 00:13:00,
2013-01-21 18:18:00,7.9,-15.9,29.47,WNW,297,7.1,10.4,32,0.00,CLR,,0.00,WeatherDisplay:10.37,2013-01-22 00:18:00,
2013-01-21 18:23:00,7.9,-15.9,29.44,WSW,242,4.8,12.8,32,0.00,CLR,,0.00,WeatherDisplay:10.37,2013-01-22 00:23:00,
2013-01-21 18:28:00,7.7,-16.1,29.44,West,279,3.6,5.8,32,0.00,CLR,,0.00,WeatherDisplay:10.37,2013-01-22 00:28:00,
2013-01-21 18:33:00,7.7,-16.1,29.44,WNW,293,7.1,10.7,32,0.00,CLR,,0.00,WeatherDisplay:10.37,2013-01-22 00:33:00,
2013-01-21 18:38:00,7.7,-16.1,29.47,WNW,284,3.6,6.9,32,0.00,CLR,,0.00,WeatherDisplay:10.37,2013-01-22 00:38:00,
2013-01-21 18:43:00,7.7,-16.1,29.47,West,259,5.3,6.9,32,0.00,CLR,,0.00,WeatherDisplay:10.37,2013-01-22 00:43:00,
2013-01-21 18:48:00,7.7,-16.1,29.47,NW,305,5.9,7.7,32,0.00,CLR,,0.00,WeatherDisplay:10.37,2013-01-22 00:48:00,
2013-01-21 18:53:00,7.5,-16.3,29.47,NNW,331,8.3,13.8,32,0.00,CLR,,0.00,WeatherDisplay:10.37,2013-01-22 00:53:00,
2013-01-21 18:58:00,7.3,-16.4,29.47,WNW,303,7.7,8.3,32,0.00,CLR,,0.00,WeatherDisplay:10.37,2013-01-22 00:58:00,
2013-01-21 19:03:00,7.2,-16.6,29.47,WNW,290,10.1,14.0,32,0.00,CLR,,0.00,WeatherDisplay:10.37,2013-01-22 01:03:00,
2013-01-21 19:08:00,7.2,-16.6,29.47,West,272,3.0,7.7,32,0.00,CLR,,0.00,WeatherDisplay:10.37,2013-01-22 01:08:00,
2013-01-21 19:13:00,7.0,-16.7,29.47,NW,306,9.5,14.0,32,0.00,CLR,,0.00,WeatherDisplay:10.37,2013-01-22 01:13:00,
2013-01-21 19:18:00,6.8,-16.9,29.47,WNW,291,7.1,11.5,32,0.00,CLR,,0.00,WeatherDisplay:10.37,2013-01-22 01:18:00,
2013-01-21 19:23:00,6.8,-16.9,29.47,North,353,4.2,7.1,32,0.00,CLR,,0.00,WeatherDisplay:10.37,2013-01-22 01:23:00,
2013-01-21 19:28:00,6.6,-17.0,29.47,WNW,299,5.3,7.7,32,0.00,CLR,,0.00,WeatherDisplay:10.37,2013-01-22 01:28:00,
2013-01-21 19:33:00,6.4,-17.2,29.47,WSW,253,5.3,8.1,32,0.00,CLR,,0.00,WeatherDisplay:10.37,2013-01-22 01:33:00,
2013-01-21 19:38:00,6.4,-17.2,29.47,West,281,4.2,7.1,32,0.00,CLR,,0.00,WeatherDisplay:10.37,2013-01-22 01:38:00,
2013-01-21 19:43:00,6.4,-17.2,29.47,NW,306,7.1,11.6,32,0.00,CLR,,0.00,WeatherDisplay:10.37,2013-01-22 01:43:00,
2013-01-21 19:48:00,6.3,-17.4,29.47,WNW,290,7.1,10.7,32,0.00,CLR,,0.00,WeatherDisplay:10.37,2013-01-22 01:48:00,
2013-01-21 19:53:00,6.3,-17.4,29.47,WNW,297,9.5,17.3,32,0.00,CLR,,0.00,WeatherDisplay:10.37,2013-01-22 01:53:00,
2013-01-21 19:58:00,6.1,-17.5,29.47,NW,305,8.3,11.6,32,0.00,CLR,,0.00,WeatherDisplay:10.37,2013-01-22 01:58:00,
2013-01-21 20:03:00,6.1,-17.5,29.47,WNW,298,6.5,8.1,32,0.00,CLR,,0.00,WeatherDisplay:10.37,2013-01-22 02:03:00,
2013-01-21 20:08:00,6.1,-17.5,29.47,NNW,340,6.5,10.7,32,0.00,CLR,,0.00,WeatherDisplay:10.37,2013-01-22 02:08:00,
2013-01-21 20:13:00,5.9,-17.7,29.47,West,267,9.5,11.6,32,0.00,CLR,,0.00,WeatherDisplay:10.37,2013-01-22 02:13:00,
2013-01-21 20:18:00,5.9,-17.7,29.47,West,266,10.7,17.3,32,0.00,CLR,,0.00,WeatherDisplay:10.37,2013-01-22 02:18:00,
2013-01-21 20:23:00,5.9,-17.7,29.47,WNW,293,5.3,8.3,32,0.00,CLR,,0.00,WeatherDisplay:10.37,2013-01-22 02:23:00,
2013-01-21 20:28:00,5.9,-17.7,29.47,NW,314,5.9,10.4,32,0.00,CLR,,0.00,WeatherDisplay:10.37,2013-01-22 02:28:00,
2013-01-21 20:33:00,5.9,-17.7,29.47,WNW,295,4.8,10.4,32,0.00,CLR,,0.00,WeatherDisplay:10.37,2013-01-22 02:33:00,
2013-01-21 20:38:00,5.9,-17.7,29.50,WNW,294,5.3,8.3,32,0.00,CLR,,0.00,WeatherDisplay:10.37,2013-01-22 02:38:00,
2013-01-21 20:43:00,5.7,-17.8,29.50,WNW,302,6.5,8.1,32,0.00,CLR,,0.00,WeatherDisplay:10.37,2013-01-22 02:43:00,
2013-01-21 20:48:00,5.5,-18.0,29.50,WNW,293,4.8,6.9,32,0.00,CLR,,0.00,WeatherDisplay:10.37,2013-01-22 02:48:00,
2013-01-21 20:53:00,5.7,-17.8,29.50,WNW,303,6.5,10.4,32,0.00,CLR,,0.00,WeatherDisplay:10.37,2013-01-22 02:53:00,
2013-01-21 20:58:00,5.7,-17.8,29.50,NW,320,6.5,10.7,32,0.00,CLR,,0.00,WeatherDisplay:10.37,2013-01-22 02:58:00,
2013-01-21 21:03:00,5.5,-18.0,29.50,WNW,301,4.2,8.3,32,0.00,CLR,,0.00,WeatherDisplay:10.37,2013-01-22 03:03:00,
2013-01-21 21:08:00,5.5,-18.0,29.50,West,269,4.8,10.4,32,0.00,CLR,,0.00,WeatherDisplay:10.37,2013-01-22 03:08:00,
2013-01-21 21:13:00,5.5,-18.0,29.50,WNW,297,3.6,4.8,32,0.00,CLR,,0.00,WeatherDisplay:10.37,2013-01-22 03:13:00,
2013-01-21 21:18:00,5.4,-18.2,29.50,WNW,289,0.0,5.8,32,0.00,CLR,,0.00,WeatherDisplay:10.37,2013-01-22 03:18:00,
2013-01-21 21:23:00,5.4,-18.2,29.50,WNW,282,4.8,6.9,32,0.00,CLR,,0.00,WeatherDisplay:10.37,2013-01-22 03:23:00,
2013-01-21 21:28:00,5.4,-18.2,29.50,NW,308,5.9,7.1,32,0.00,CLR,,0.00,WeatherDisplay:10.37,2013-01-22 03:28:00,
2013-01-21 21:33:00,5.4,-18.2,29.50,WNW,295,5.9,6.9,32,0.00,CLR,,0.00,WeatherDisplay:10.37,2013-01-22 03:33:00,
2013-01-21 21:38:00,5.2,-18.3,29.50,WNW,293,4.2,5.8,32,0.00,CLR,,0.00,WeatherDisplay:10.37,2013-01-22 03:38:00,
2013-01-21 21:43:00,5.0,-18.5,29.50,WNW,302,6.5,8.1,32,0.00,CLR,,0.00,WeatherDisplay:10.37,2013-01-22 03:43:00,
2013-01-21 21:48:00,4.8,-18.6,29.50,NW,326,7.1,10.4,32,0.00,CLR,,0.00,WeatherDisplay:10.37,2013-01-22 03:48:00,
2013-01-21 21:53:00,5.0,-18.5,29.50,West,274,3.6,10.4,32,0.00,CLR,,0.00,WeatherDisplay:10.37,2013-01-22 03:53:00,
2013-01-21 21:58:00,5.0,-18.5,29.50,WNW,292,4.2,6.9,32,0.00,CLR,,0.00,WeatherDisplay:10.37,2013-01-22 03:58:00,
2013-01-21 22:03:00,4.6,-18.8,29.50,NW,320,4.8,10.1,32,0.00,CLR,,0.00,WeatherDisplay:10.37,2013-01-22 04:03:00,
2013-01-21 22:08:00,4.5,-19.0,29.50,NW,325,5.3,8.1,32,0.00,CLR,,0.00,WeatherDisplay:10.37,2013-01-22 04:08:00,
2013-01-21 22:13:00,4.5,-19.0,29.50,NW,311,5.3,6.9,32,0.00,CLR,,0.00,WeatherDisplay:10.37,2013-01-22 04:13:00,
2013-01-21 22:18:00,4.6,-18.8,29.50,NW,311,3.6,7.1,32,0.00,CLR,,0.00,WeatherDisplay:10.37,2013-01-22 04:18:00,
2013-01-21 22:23:00,4.5,-19.0,29.50,WNW,293,5.3,8.1,32,0.00,CLR,,0.00,WeatherDisplay:10.37,2013-01-22 04:23:00,
2013-01-21 22:28:00,4.5,-19.0,29.50,NW,317,5.9,8.3,32,0.00,CLR,,0.00,WeatherDisplay:10.37,2013-01-22 04:28:00,
2013-01-21 22:33:00,4.5,-19.0,29.50,WNW,282,7.1,10.7,32,0.00,CLR,,0.00,WeatherDisplay:10.37,2013-01-22 04:33:00,
2013-01-21 22:38:00,4.5,-19.0,29.50,NNW,332,4.2,8.1,32,0.00,CLR,,0.00,WeatherDisplay:10.37,2013-01-22 04:38:00,
2013-01-21 22:43:00,4.5,-19.0,29.50,NW,314,4.8,8.1,32,0.00,CLR,,0.00,WeatherDisplay:10.37,2013-01-22 04:43:00,
2013-01-21 22:48:00,4.3,-19.1,29.50,WNW,301,4.8,8.1,32,0.00,CLR,,0.00,WeatherDisplay:10.37,2013-01-22 04:48:00,
2013-01-21 22:53:00,4.1,-19.3,29.53,West,278,3.6,8.3,32,0.00,CLR,,0.00,WeatherDisplay:10.37,2013-01-22 04:53:00,
2013-01-21 22:58:00,4.3,-19.1,29.53,NW,313,6.5,10.7,32,0.00,CLR,,0.00,WeatherDisplay:10.37,2013-01-22 04:58:00,
2013-01-21 23:00:00,4.3,-19.1,29.53,NW,326,5.3,7.1,32,0.00,CLR,,0.00,WeatherDisplay:10.37,2013-01-22 05:00:00,
2013-01-21 23:03:00,4.3,-19.1,29.53,NW,307,4.8,6.9,32,0.00,CLR,,0.00,WeatherDisplay:10.37,2013-01-22 05:03:00,
2013-01-21 23:05:00,4.3,-19.1,29.53,NNW,336,4.8,9.2,32,0.00,CLR,,0.00,WeatherDisplay:10.37,2013-01-22 05:05:00,
2013-01-21 23:09:00,4.1,-19.3,29.53,NW,308,5.3,7.1,32,0.00,CLR,,0.00,WeatherDisplay:10.37,2013-01-22 05:09:00,
2013-01-21 23:14:00,4.1,-19.3,29.53,NNW,328,5.3,6.9,32,0.00,CLR,,0.00,WeatherDisplay:10.37,2013-01-22 05:14:00,
2013-01-21 23:19:00,4.1,-19.3,29.53,NNW,332,4.2,6.9,32,0.00,CLR,,0.00,WeatherDisplay:10.37,2013-01-22 05:19:00,
2013-01-21 23:24:00,3.9,-19.4,29.53,NNW,328,4.2,6.9,32,0.00,CLR,,0.00,WeatherDisplay:10.37,2013-01-22 05:24:00,
2013-01-21 23:29:00,3.7,-19.6,29.53,NW,317,4.8,8.1,32,0.00,CLR,,0.00,WeatherDisplay:10.37,2013-01-22 05:29:00,
2013-01-21 23:34:00,3.7,-19.6,29.53,WNW,288,5.3,7.7,32,0.00,CLR,,0.00,WeatherDisplay:10.37,2013-01-22 05:34:00,
2013-01-21 23:39:00,3.7,-19.6,29.53,NW,324,0.0,3.6,32,0.00,CLR,,0.00,WeatherDisplay:10.37,2013-01-22 05:39:00,
2013-01-21 23:44:00,3.7,-19.6,29.53,North,2,5.9,8.1,32,0.00,CLR,,0.00,WeatherDisplay:10.37,2013-01-22 05:44:00,
2013-01-21 23:49:00,3.2,-20.1,29.53,NNW,341,3.0,5.3,32,0.00,CLR,,0.00,WeatherDisplay:10.37,2013-01-22 05:49:00,
2013-01-21 23:54:00,3.2,-20.1,29.53,NNW,343,3.0,7.1,32,0.00,CLR,,0.00,WeatherDisplay:10.37,2013-01-22 05:54:00,
2013-01-21 23:59:00,3.2,-20.1,29.53,NNW,344,4.2,7.1,32,0.00,CLR,,0.00,WeatherDisplay:10.37,2013-01-22 05:59:00,